createdAt,value
2023-04-19T00:02:13.368Z,101399.06
2023-04-19T00:04:40.393Z,101400.34
2023-04-19T00:07:07.703Z,101392.69
2023-04-19T00:09:34.462Z,101396.03
2023-04-19T00:12:01.510Z,101399.22
2023-04-19T00:14:28.610Z,101396.75
2023-04-19T00:16:55.496Z,101386.63
2023-04-19T00:19:23.354Z,101393.97
2023-04-19T00:21:50.100Z,101398.13
2023-04-19T00:24:18.117Z,101391.53
2023-04-19T00:26:44.878Z,101394.94
2023-04-19T00:29:11.784Z,101390.22
2023-04-19T00:31:39.854Z,101386.53
2023-04-19T00:34:06.929Z,101386.91
2023-04-19T00:36:33.748Z,101391.56
2023-04-19T00:39:00.525Z,101389.75
2023-04-19T00:41:27.302Z,101383.28
2023-04-19T00:43:54.129Z,101382.78
2023-04-19T00:46:21.766Z,101380.75
2023-04-19T00:48:49.993Z,101376.59
2023-04-19T00:51:16.972Z,101372.09
2023-04-19T00:53:43.918Z,101373.88
2023-04-19T00:56:11.255Z,101377.88
2023-04-19T00:58:39.408Z,101377.97
2023-04-19T01:01:06.427Z,101362.16
2023-04-19T01:03:35.066Z,101372.03
2023-04-19T01:06:02.543Z,101366.53
2023-04-19T01:08:29.343Z,101352.50
2023-04-19T01:10:56.157Z,101356.88
2023-04-19T01:13:23.006Z,101357.88
2023-04-19T01:15:49.904Z,101359.91
2023-04-19T01:18:17.122Z,101359.28
2023-04-19T01:20:43.910Z,101346.75
2023-04-19T01:23:12.013Z,101348.22
2023-04-19T01:25:39.247Z,101352.94
2023-04-19T01:28:06.449Z,101347.44
2023-04-19T01:30:33.293Z,101344.72
2023-04-19T01:33:00.214Z,101345.59
2023-04-19T01:35:27.212Z,101346.19
2023-04-19T01:37:56.240Z,101342.75
2023-04-19T01:40:25.646Z,101351.50
2023-04-19T01:42:53.079Z,101336.81
2023-04-19T01:45:20.424Z,101338.94
2023-04-19T01:47:51.499Z,101350.31
2023-04-19T01:50:18.356Z,101343.94
2023-04-19T01:52:45.174Z,101338.00
2023-04-19T01:55:11.877Z,101341.28
2023-04-19T01:57:38.680Z,101338.44
2023-04-19T02:00:06.269Z,101337.03
2023-04-19T02:02:41.952Z,101334.22
2023-04-19T02:05:09.457Z,101327.84
2023-04-19T02:07:36.238Z,101337.84
2023-04-19T02:10:03.672Z,101339.69
2023-04-19T02:12:33.633Z,101337.34
2023-04-19T02:15:04.156Z,101331.06
2023-04-19T02:17:31.676Z,101327.75
2023-04-19T02:20:00.387Z,101319.75
2023-04-19T02:22:27.340Z,101324.56
2023-04-19T02:24:54.213Z,101318.59
2023-04-19T02:27:27.243Z,101314.09
2023-04-19T02:29:54.832Z,101312.78
2023-04-19T02:32:21.800Z,101312.38
2023-04-19T02:34:48.637Z,101310.69
2023-04-19T02:37:15.426Z,101311.53
2023-04-19T02:39:42.716Z,101311.94
2023-04-19T02:42:09.586Z,101317.31
2023-04-19T02:44:36.356Z,101314.16
2023-04-19T02:47:03.132Z,101304.69
2023-04-19T02:49:33.189Z,101305.53
2023-04-19T02:52:01.093Z,101307.28
2023-04-19T02:54:28.048Z,101304.03
2023-04-19T02:56:54.922Z,101302.38
2023-04-19T02:59:21.677Z,101304.56
2023-04-19T03:01:48.713Z,101299.41
2023-04-19T03:04:17.310Z,101304.38
2023-04-19T03:06:44.723Z,101303.50
2023-04-19T03:09:12.221Z,101298.47
2023-04-19T03:11:39.362Z,101293.13
2023-04-19T03:14:06.539Z,101295.09
2023-04-19T03:16:33.809Z,101297.16
2023-04-19T03:19:01.252Z,101293.19
2023-04-19T03:21:33.237Z,101281.81
2023-04-19T03:24:00.381Z,101297.50
2023-04-19T03:26:27.168Z,101294.28
2023-04-19T03:28:56.501Z,101292.13
2023-04-19T03:31:42.249Z,101293.50
2023-04-19T03:34:12.261Z,101299.81
2023-04-19T03:36:42.542Z,101304.13
2023-04-19T03:39:09.352Z,101302.25
2023-04-19T03:41:40.336Z,101304.13
2023-04-19T03:44:21.528Z,101296.59
2023-04-19T03:46:48.963Z,101296.47
2023-04-19T03:49:19.886Z,101300.16
2023-04-19T03:51:52.064Z,101299.66
2023-04-19T03:54:18.965Z,101302.16
2023-04-19T03:56:45.760Z,101300.00
2023-04-19T03:59:13.252Z,101304.34
2023-04-19T04:01:42.510Z,101304.03
2023-04-19T04:04:10.221Z,101295.88
2023-04-19T04:06:37.472Z,101299.28
2023-04-19T04:09:04.562Z,101292.97
2023-04-19T04:11:31.564Z,101296.81
2023-04-19T04:13:58.608Z,101295.97
2023-04-19T04:16:31.781Z,101296.81
2023-04-19T04:18:58.696Z,101297.78
2023-04-19T04:21:28.323Z,101300.22
2023-04-19T04:23:58.781Z,101298.97
2023-04-19T04:26:39.467Z,101298.31
2023-04-19T04:29:17.730Z,101297.78
2023-04-19T04:31:45.357Z,101304.13
2023-04-19T04:34:14.365Z,101301.63
2023-04-19T04:36:50.709Z,101306.47
2023-04-19T04:39:19.485Z,101300.28
2023-04-19T04:41:48.027Z,101301.28
2023-04-19T04:44:15.491Z,101310.44
2023-04-19T04:46:44.448Z,101308.44
2023-04-19T04:49:15.209Z,101307.94
2023-04-19T04:51:42.665Z,101303.09
2023-04-19T04:54:09.899Z,101298.75
2023-04-19T04:56:36.998Z,101295.09
2023-04-19T04:59:04.178Z,101295.94
2023-04-19T05:01:35.145Z,101302.94
2023-04-19T05:04:02.583Z,101303.56
2023-04-19T05:06:29.392Z,101301.75
2023-04-19T05:08:56.212Z,101301.75
2023-04-19T05:11:31.543Z,101303.75
2023-04-19T05:13:58.843Z,101304.25
2023-04-19T05:16:27.114Z,101300.25
2023-04-19T05:18:54.334Z,101304.59
2023-04-19T05:21:22.468Z,101296.25
2023-04-19T05:23:49.553Z,101305.94
2023-04-19T05:26:16.369Z,101312.28
2023-04-19T05:28:44.521Z,101308.44
2023-04-19T05:31:21.104Z,101320.44
2023-04-19T05:34:11.285Z,101315.91
2023-04-19T05:36:38.115Z,101315.25
2023-04-19T05:39:04.899Z,101316.09
2023-04-19T05:41:31.693Z,101315.75
2023-04-19T05:43:58.490Z,101313.09
2023-04-19T05:46:26.138Z,101321.41
2023-04-19T05:48:53.419Z,101323.56
2023-04-19T05:51:40.198Z,101329.56
2023-04-19T05:54:13.963Z,101325.06
2023-04-19T05:56:44.404Z,101325.56
2023-04-19T05:59:11.712Z,101326.00
2023-04-19T06:01:38.524Z,101330.69
2023-04-19T06:04:06.373Z,101325.34
2023-04-19T06:06:33.308Z,101327.16
2023-04-19T06:09:00.083Z,101331.31
2023-04-19T06:11:34.838Z,101330.47
2023-04-19T06:14:06.289Z,101330.16
2023-04-19T06:16:33.438Z,101326.66
2023-04-19T06:19:00.819Z,101324.25
2023-04-19T06:21:31.496Z,101326.41
2023-04-19T06:23:58.404Z,101329.06
2023-04-19T06:26:25.177Z,101326.19
2023-04-19T06:28:52.168Z,101325.00
2023-04-19T06:31:19.191Z,101327.44
2023-04-19T06:33:46.093Z,101320.81
2023-04-19T06:36:13.116Z,101320.44
2023-04-19T06:38:41.466Z,101327.53
2023-04-19T06:41:09.293Z,101327.88
2023-04-19T06:43:36.154Z,101321.47
2023-04-19T06:46:06.689Z,101327.47
2023-04-19T06:48:34.604Z,101330.56
2023-04-19T06:51:01.358Z,101326.09
2023-04-19T06:53:28.136Z,101324.50
2023-04-19T06:56:04.571Z,101313.88
2023-04-19T06:58:35.535Z,101324.25
2023-04-19T07:01:05.432Z,101324.25
2023-04-19T07:03:33.002Z,101308.59
2023-04-19T07:05:59.989Z,101314.78
2023-04-19T07:08:35.082Z,101318.47
2023-04-19T07:11:09.518Z,101315.06
2023-04-19T07:13:36.321Z,101310.75
2023-04-19T07:16:07.437Z,101313.16
2023-04-19T07:18:34.370Z,101314.78
2023-04-19T07:21:01.152Z,101312.00
2023-04-19T07:23:27.890Z,101316.22
2023-04-19T07:25:54.777Z,101309.63
2023-04-19T07:28:21.597Z,101322.59
2023-04-19T07:30:48.319Z,101323.28
2023-04-19T07:33:15.140Z,101317.00
2023-04-19T07:35:41.943Z,101319.63
2023-04-19T07:38:08.849Z,101318.75
2023-04-19T07:40:35.730Z,101315.13
2023-04-19T07:43:02.734Z,101323.44
2023-04-19T07:45:30.962Z,101327.59
2023-04-19T07:47:57.810Z,101326.44
2023-04-19T07:50:27.937Z,101325.16
2023-04-19T07:52:54.935Z,101328.53
2023-04-19T07:55:21.872Z,101329.00
2023-04-19T07:57:49.787Z,101325.94
2023-04-19T08:00:18.139Z,101325.31
2023-04-19T08:02:48.616Z,101328.69
2023-04-19T08:05:20.109Z,101336.41
2023-04-19T08:07:47.128Z,101333.38
2023-04-19T08:10:14.729Z,101329.28
2023-04-19T08:12:53.667Z,101334.28
2023-04-19T08:16:15.169Z,101332.66
2023-04-19T08:18:15.859Z,101334.53
2023-04-19T08:20:42.886Z,101334.94
2023-04-19T08:23:18.574Z,101337.63
2023-04-19T08:25:49.835Z,101329.97
2023-04-19T08:28:17.372Z,101340.28
2023-04-19T08:30:44.320Z,101337.63
2023-04-19T08:33:11.170Z,101344.00
2023-04-19T08:35:39.276Z,101337.75
2023-04-19T08:38:06.387Z,101337.53
2023-04-19T08:40:33.680Z,101329.22
2023-04-19T08:43:06.288Z,101338.50
2023-04-19T08:45:33.444Z,101336.78
2023-04-19T08:48:02.838Z,101334.44
2023-04-19T08:50:35.912Z,101339.78
2023-04-19T08:53:23.752Z,101342.69
2023-04-19T08:56:10.566Z,101343.47
2023-04-19T08:59:00.376Z,101343.88
2023-04-19T09:01:34.759Z,101339.91
2023-04-19T09:04:16.944Z,101341.97
2023-04-19T09:06:54.183Z,101336.06
2023-04-19T09:09:37.294Z,101330.28
2023-04-19T09:12:18.185Z,101338.56
2023-04-19T09:17:17.289Z,101345.81
2023-04-19T09:19:50.760Z,101339.38
2023-04-19T09:22:18.823Z,101334.41
2023-04-19T09:25:22.729Z,101337.19
2023-04-19T09:27:35.409Z,101333.44
2023-04-19T09:30:04.489Z,101328.78
2023-04-19T09:32:46.953Z,101324.56
2023-04-19T09:35:14.084Z,101331.75
2023-04-19T09:38:01.922Z,101329.91
2023-04-19T09:40:28.661Z,101326.53
2023-04-19T09:43:08.753Z,101320.94
2023-04-19T09:45:43.570Z,101317.72
2023-04-19T09:48:11.470Z,101318.66
2023-04-19T09:51:00.145Z,101321.09
2023-04-19T09:53:34.440Z,101307.22
2023-04-19T09:56:03.570Z,101313.06
2023-04-19T09:58:42.653Z,101306.41
2023-04-19T10:01:18.966Z,101311.00
2023-04-19T10:03:49.543Z,101299.06
2023-04-19T10:08:50.362Z,101304.25
2023-04-19T10:11:19.117Z,101297.28
2023-04-19T10:13:48.233Z,101301.13
2023-04-19T10:16:19.729Z,101299.22
2023-04-19T10:18:49.862Z,101294.06
2023-04-19T10:21:17.911Z,101290.72
2023-04-19T10:23:44.903Z,101297.53
2023-04-19T10:26:11.825Z,101299.69
2023-04-19T10:28:38.608Z,101288.38
